North Bay, Canada
Current Conditions -  °F | °C
As of 4:00 AM on Saturday 29 Nov 2014 (Local Time) from CYYB Reporting Station
Light Snow Light Snow  
Wind Chill: -2°   Ceiling: 3700
Heat Index: 10°   Visibility: 9mi
Dew Point:   Wind: 8mph
Humidity: 85%   Direction: 90°E
Pressure: 30.06"   Gusts: NA
Location:  46.31°N, 79.46°W
Report Text: CYYB 290900Z AUTO 09007KT 9SM -SN OVC037 M12/M14 A3006 RMK SLP207
Loading
Personal Weather Stations






























Interactive Weather Map New forecast layout! Learn more

10-Day Weather Forecast

Advertisements
Track Severe Weather on mobile